Eos — FAB5642 — position and weather

sailwx.info

Track history (hours):
 
Tides and Currents Weather Stations Pressure Air Temp Water Temp Dewpoint Dewpoint Depression Visibility Wind Speed Wind Dir Waves Ship Positions

Eos

Last reported at 2018-Jun-07 15:20 UTC. Time now 2018-Jun-20 05:40 UTC.
Position N 47°43' W 003°22'.
Warning: this ship's position is 12 days out of date.

Length 11 m.

Type: Sailing vessel. MMSI: 227214860.

Date/timePositionNaut miles runAvg speedWind from/ knotsBaromVisibWave heightAir tempDewpointWater temp
2018-Jun-07 15:20N 47°43' W 003°22'0 0.0
2018-Jun-07 14:59N 47°43' W 003°22'0 0.0
2018-Jun-07 14:29N 47°43' W 003°22'0 0.0
2018-Jun-07 13:59N 47°43' W 003°22'0 0.0
2018-Jun-07 13:29N 47°43' W 003°22'0 0.0
2018-Jun-07 12:59N 47°43' W 003°22'0 0.0
2018-Jun-07 12:29N 47°43' W 003°22'0 0.0
2018-Jun-07 11:59N 47°43' W 003°22'0 0.0
2018-Jun-07 11:29N 47°43' W 003°22'0 0.0
2018-Jun-07 10:59N 47°43' W 003°22'0 0.0
2018-Jun-07 10:29N 47°43' W 003°22'0 0.0
2018-Jun-06 00:31N 47°43' W 003°22'0 0.0
2018-Jun-06 00:28N 47°43' W 003°22'0 0.0
2018-Jun-05 23:58N 47°43' W 003°22'0 0.0
2018-Jun-05 23:27N 47°43' W 003°22'0 0.2
2018-Jun-05 22:58N 47°43' W 003°22'1 2.1
2018-Jun-05 22:30N 47°42' W 003°22'1 1.7
2018-Jun-05 22:00N 47°42' W 003°23'1 1.6
2018-Jun-05 21:30N 47°41' W 003°24'2 4.0
2018-Jun-05 21:00N 47°41' W 003°27'3 5.3
2018-Jun-05 20:30N 47°42' W 003°30'2 4.5
2018-Jun-05 19:57N 47°45' W 003°32'1 0.3
2018-Jun-05 16:59N 47°45' W 003°32'2 4.8
2018-Jun-05 16:30N 47°43' W 003°31'1 2.8
2018-Jun-05 16:01N 47°42' W 003°30'1 2.8
2018-Jun-05 15:31N 47°41' W 003°28'2 0.3
2018-Jun-05 10:24N 47°39' W 003°29'2 4.4
2018-Jun-05 10:00N 47°40' W 003°32'1 1.7
2018-Jun-05 09:29N 47°40' W 003°33'0 0.1
2018-Jun-05 08:59N 47°40' W 003°33'0 0.8
2018-Jun-05 08:31N 47°40' W 003°33'1 2.7
2018-Jun-05 07:59N 47°39' W 003°31'2 4.5
2018-Jun-05 07:31N 47°39' W 003°28'1 1.5
2018-Jun-05 06:58N 47°39' W 003°27'0 0.0
2018-Jun-05 06:28N 47°39' W 003°27'0 0.0
2018-Jun-05 00:20N 47°39' W 003°27'0 0.0
2018-Jun-04 23:59N 47°39' W 003°27'0 0.0
2018-Jun-04 23:29N 47°39' W 003°27'0 0.0
2018-Jun-04 22:59N 47°39' W 003°27'0 0.0
2018-Jun-04 22:29N 47°39' W 003°27'0 0.0
2018-Jun-04 21:59N 47°39' W 003°27'0 0.0
2018-Jun-04 21:29N 47°39' W 003°27'0 0.0
2018-Jun-04 20:59N 47°39' W 003°27'0 0.0
2018-Jun-04 20:29N 47°39' W 003°27'0 0.0
2018-Jun-04 19:59N 47°39' W 003°27'0 0.0
2018-Jun-04 19:29N 47°39' W 003°27'0 0.0
2018-Jun-04 18:59N 47°39' W 003°27'0 0.0
2018-Jun-04 18:10N 47°39' W 003°27'0 0.0
2018-Jun-04 17:58N 47°39' W 003°27'0 0.0
2018-Jun-04 17:30N 47°39' W 003°27'2 3.7
2018-Jun-04 17:00N 47°40' W 003°29'2 4.5
2018-Jun-04 16:30N 47°41' W 003°32'17 2.6
2018-Jun-04 09:58N 47°44' W 003°57'34 0.7
2018-Jun-02 06:43N 47°59' W 004°43'3 3.9
2018-Jun-02 05:53N 48°02' W 004°46'4 4.1
2018-Jun-02 04:58N 48°03' W 004°51'1 0.1
2018-Jun-01 19:53N 48°02' W 004°51'0 0.0
2018-Jun-01 18:38N 48°02' W 004°51'1 0.1
2018-Jun-01 12:43N 48°03' W 004°51'1 3.4
2018-Jun-01 12:29N 48°03' W 004°51'2 3.0
2018-Jun-01 11:58N 48°05' W 004°52'2 3.2
2018-Jun-01 11:29N 48°03' W 004°51'55 1.1
2018-May-30 08:03N 47°41' W 003°36'0 4.5
2018-May-30 07:57N 47°41' W 003°35'2 4.1
2018-May-30 07:30N 47°40' W 003°33'2 5.0
2018-May-30 07:00N 47°39' W 003°29'0 0.7
2018-May-30 06:30N 47°39' W 003°29'0 0.0
2018-May-30 06:00N 47°39' W 003°29'0 0.0
2018-May-29 21:34N 47°39' W 003°29'0 0.0
2018-May-29 21:31N 47°39' W 003°29'0 0.0
2018-May-29 20:38N 47°39' W 003°29'0 0.0
2018-May-29 20:23N 47°39' W 003°29'0 0.0
2018-May-29 19:59N 47°39' W 003°29'0 0.0
2018-May-29 19:29N 47°39' W 003°29'0 0.0
2018-May-29 18:58N 47°39' W 003°29'1 2.3
2018-May-29 18:30N 47°40' W 003°28'3 5.9
2018-May-29 18:00N 47°41' W 003°24'2 4.7
2018-May-29 17:30N 47°43' W 003°22'0 0.3
2018-May-29 17:00N 47°43' W 003°22'0 0.0
2018-May-29 16:30N 47°43' W 003°22'0 0.0
2018-May-29 16:00N 47°43' W 003°22'0 0.0
2018-May-29 15:30N 47°43' W 003°22'0 0.0
2018-May-29 14:58N 47°43' W 003°22'0 0.0
2018-May-29 14:28N 47°43' W 003°22'  
Track history (hours):
 
Tides and Currents Weather Stations Pressure Air Temp Water Temp Dewpoint Dewpoint Depression Visibility Wind Speed Wind Dir Waves Ship Positions

Eos

Last reported at 2018-Jun-07 15:20 UTC. Time now 2018-Jun-20 05:40 UTC.
Position N 47°43' W 003°22'.
Warning: this ship's position is 12 days out of date.

Length 11 m.

Type: Sailing vessel. MMSI: 227214860.

Date/timePositionNaut miles runAvg speedWind from/ knotsBaromVisibWave heightAir tempDewpointWater temp
2018-Jun-07 15:20N 47°43' W 003°22'0 0.0
2018-Jun-07 14:59N 47°43' W 003°22'0 0.0
2018-Jun-07 14:29N 47°43' W 003°22'0 0.0
2018-Jun-07 13:59N 47°43' W 003°22'0 0.0
2018-Jun-07 13:29N 47°43' W 003°22'0 0.0
2018-Jun-07 12:59N 47°43' W 003°22'0 0.0
2018-Jun-07 12:29N 47°43' W 003°22'0 0.0
2018-Jun-07 11:59N 47°43' W 003°22'0 0.0
2018-Jun-07 11:29N 47°43' W 003°22'0 0.0
2018-Jun-07 10:59N 47°43' W 003°22'0 0.0
2018-Jun-07 10:29N 47°43' W 003°22'0 0.0
2018-Jun-06 00:31N 47°43' W 003°22'0 0.0
2018-Jun-06 00:28N 47°43' W 003°22'0 0.0
2018-Jun-05 23:58N 47°43' W 003°22'0 0.0
2018-Jun-05 23:27N 47°43' W 003°22'0 0.2
2018-Jun-05 22:58N 47°43' W 003°22'1 2.1
2018-Jun-05 22:30N 47°42' W 003°22'1 1.7
2018-Jun-05 22:00N 47°42' W 003°23'1 1.6
2018-Jun-05 21:30N 47°41' W 003°24'2 4.0
2018-Jun-05 21:00N 47°41' W 003°27'3 5.3
2018-Jun-05 20:30N 47°42' W 003°30'2 4.5
2018-Jun-05 19:57N 47°45' W 003°32'1 0.3
2018-Jun-05 16:59N 47°45' W 003°32'2 4.8
2018-Jun-05 16:30N 47°43' W 003°31'1 2.8
2018-Jun-05 16:01N 47°42' W 003°30'1 2.8
2018-Jun-05 15:31N 47°41' W 003°28'2 0.3
2018-Jun-05 10:24N 47°39' W 003°29'2 4.4
2018-Jun-05 10:00N 47°40' W 003°32'1 1.7
2018-Jun-05 09:29N 47°40' W 003°33'0 0.1
2018-Jun-05 08:59N 47°40' W 003°33'0 0.8
2018-Jun-05 08:31N 47°40' W 003°33'1 2.7
2018-Jun-05 07:59N 47°39' W 003°31'2 4.5
2018-Jun-05 07:31N 47°39' W 003°28'1 1.5
2018-Jun-05 06:58N 47°39' W 003°27'0 0.0
2018-Jun-05 06:28N 47°39' W 003°27'0 0.0
2018-Jun-05 00:20N 47°39' W 003°27'0 0.0
2018-Jun-04 23:59N 47°39' W 003°27'0 0.0
2018-Jun-04 23:29N 47°39' W 003°27'0 0.0
2018-Jun-04 22:59N 47°39' W 003°27'0 0.0
2018-Jun-04 22:29N 47°39' W 003°27'0 0.0
2018-Jun-04 21:59N 47°39' W 003°27'0 0.0
2018-Jun-04 21:29N 47°39' W 003°27'0 0.0
2018-Jun-04 20:59N 47°39' W 003°27'0 0.0
2018-Jun-04 20:29N 47°39' W 003°27'0 0.0
2018-Jun-04 19:59N 47°39' W 003°27'0 0.0
2018-Jun-04 19:29N 47°39' W 003°27'0 0.0
2018-Jun-04 18:59N 47°39' W 003°27'0 0.0
2018-Jun-04 18:10N 47°39' W 003°27'0 0.0
2018-Jun-04 17:58N 47°39' W 003°27'0 0.0
2018-Jun-04 17:30N 47°39' W 003°27'2 3.7
2018-Jun-04 17:00N 47°40' W 003°29'2 4.5
2018-Jun-04 16:30N 47°41' W 003°32'17 2.6
2018-Jun-04 09:58N 47°44' W 003°57'34 0.7
2018-Jun-02 06:43N 47°59' W 004°43'3 3.9
2018-Jun-02 05:53N 48°02' W 004°46'4 4.1
2018-Jun-02 04:58N 48°03' W 004°51'1 0.1
2018-Jun-01 19:53N 48°02' W 004°51'0 0.0
2018-Jun-01 18:38N 48°02' W 004°51'1 0.1
2018-Jun-01 12:43N 48°03' W 004°51'1 3.4
2018-Jun-01 12:29N 48°03' W 004°51'2 3.0
2018-Jun-01 11:58N 48°05' W 004°52'2 3.2
2018-Jun-01 11:29N 48°03' W 004°51'55 1.1
2018-May-30 08:03N 47°41' W 003°36'0 4.5
2018-May-30 07:57N 47°41' W 003°35'2 4.1
2018-May-30 07:30N 47°40' W 003°33'2 5.0
2018-May-30 07:00N 47°39' W 003°29'0 0.7
2018-May-30 06:30N 47°39' W 003°29'0 0.0
2018-May-30 06:00N 47°39' W 003°29'0 0.0
2018-May-29 21:34N 47°39' W 003°29'0 0.0
2018-May-29 21:31N 47°39' W 003°29'0 0.0
2018-May-29 20:38N 47°39' W 003°29'0 0.0
2018-May-29 20:23N 47°39' W 003°29'0 0.0
2018-May-29 19:59N 47°39' W 003°29'0 0.0
2018-May-29 19:29N 47°39' W 003°29'0 0.0
2018-May-29 18:58N 47°39' W 003°29'1 2.3
2018-May-29 18:30N 47°40' W 003°28'3 5.9
2018-May-29 18:00N 47°41' W 003°24'2 4.7
2018-May-29 17:30N 47°43' W 003°22'0 0.3
2018-May-29 17:00N 47°43' W 003°22'0 0.0
2018-May-29 16:30N 47°43' W 003°22'0 0.0
2018-May-29 16:00N 47°43' W 003°22'0 0.0
2018-May-29 15:30N 47°43' W 003°22'0 0.0
2018-May-29 14:58N 47°43' W 003°22'0 0.0
2018-May-29 14:28N 47°43' W 003°22'  

Dump ship's entire track history